Time;durP1;ratioP1;P1;durP2;ratioP2;P2;SDS_P1;SDS_P2;PMS_P1;PMS_P2;Temp;Humidity;BMP_temperature;BMP_pressure;BME280_temperature;BME280_humidity;BME280_pressure;Samples;Min_cycle;Max_cycle;Signal;HPM_P1;HPM_P2
2023/10/30 00:00:47;;;;;;;6.00;0.30;;;9.90;99.90;;;;;;4998492;28;20030;-75
2023/10/30 00:03:14;;;;;;;4.15;0.03;;;9.90;99.90;;;;;;4997490;28;20033;-75
2023/10/30 00:05:41;;;;;;;3.50;0.00;;;9.80;99.90;;;;;;4997552;28;20022;-75
2023/10/30 00:08:09;;;;;;;3.42;0.00;;;9.90;99.90;;;;;;4997784;28;20033;-74
2023/10/30 00:10:35;;;;;;;1.33;0.10;;;9.80;99.90;;;;;;4979238;28;20035;-75
2023/10/30 00:13:07;;;;;;;5.25;0.32;;;9.80;99.90;;;;;;4979303;28;20335;-75
2023/10/30 00:15:36;;;;;;;6.70;0.32;;;9.90;99.90;;;;;;4997904;28;20054;-74
2023/10/30 00:18:07;;;;;;;4.10;0.00;;;9.80;99.90;;;;;;4997199;28;20081;-73
2023/10/30 00:20:37;;;;;;;8.00;0.32;;;9.80;99.90;;;;;;4997595;28;20529;-76
2023/10/30 00:23:03;;;;;;;4.43;0.13;;;9.80;99.90;;;;;;4997811;28;20429;-75
2023/10/30 00:25:43;;;;;;;2.92;0.43;;;9.80;99.90;;;;;;4979806;28;20023;-75
2023/10/30 00:28:23;;;;;;;6.00;1.30;;;10.20;99.90;;;;;;4980159;28;20458;-75
2023/10/30 00:30:56;;;;;;;8.73;0.63;;;9.80;99.90;;;;;;4997958;28;20057;-75
2023/10/30 00:33:25;;;;;;;3.60;0.00;;;9.70;99.90;;;;;;4979673;28;20444;-75
2023/10/30 00:35:58;;;;;;;2.08;0.10;;;9.70;99.90;;;;;;4997267;28;20034;-75
2023/10/30 00:38:24;;;;;;;0.68;0.00;;;;;;;;;;4979672;28;20032;-75
2023/10/30 00:40:51;;;;;;;0.90;0.10;;;;;;;;;;4997174;28;20080;-75
2023/10/30 00:43:26;;;;;;;3.92;0.25;;;;;;;;;;4979164;28;20366;-75
2023/10/30 00:45:52;;;;;;;3.08;0.20;;;;;;;;;;4979530;28;20060;-75
2023/10/30 00:48:34;;;;;;;4.03;0.20;;;;;;;;;;4979473;28;20479;-75
2023/10/30 00:51:03;;;;;;;3.88;0.47;;;;;;;;;;4997141;28;20026;-74
2023/10/30 00:53:35;;;;;;;3.83;0.10;;;;;;;;;;4997260;28;20030;-75
2023/10/30 00:56:07;;;;;;;5.32;0.00;;;;;;;;;;4979438;28;20030;-74
2023/10/30 00:58:36;;;;;;;4.80;0.10;;;;;;;;;;4997083;28;20393;-75
2023/10/30 01:01:02;;;;;;;4.30;0.00;;;;;;;;;;4978769;28;20532;-75
2023/10/30 01:03:28;;;;;;;11.20;0.47;;;;;;;;;;4996218;28;20023;-75
2023/10/30 01:05:58;;;;;;;7.57;0.40;;;9.70;99.90;;;;;;4996580;28;20224;-75
2023/10/30 01:08:24;;;;;;;4.38;0.32;;;;;;;;;;4995820;28;20516;-75
2023/10/30 01:10:50;;;;;;;4.57;0.55;;;9.70;99.90;;;;;;4978519;28;20030;-75
2023/10/30 01:13:15;;;;;;;6.85;0.60;;;9.60;99.90;;;;;;4978594;28;20027;-75
2023/10/30 01:15:41;;;;;;;3.33;0.10;;;9.60;99.90;;;;;;4996366;28;20031;-75
2023/10/30 01:18:07;;;;;;;3.72;0.50;;;;;;;;;;4978239;28;20073;-75
2023/10/30 01:20:40;;;;;;;8.50;0.20;;;9.60;99.90;;;;;;4995836;28;20037;-75
2023/10/30 01:23:05;;;;;;;5.85;0.17;;;9.60;99.90;;;;;;4978317;28;20050;-75
2023/10/30 01:25:31;;;;;;;11.30;0.55;;;9.50;99.90;;;;;;4995857;28;20107;-75
2023/10/30 01:27:56;;;;;;;7.15;0.10;;;9.60;99.90;;;;;;4995613;28;20030;-75
2023/10/30 01:30:22;;;;;;;7.22;0.95;;;9.60;99.90;;;;;;4978609;28;20037;-74
2023/10/30 01:32:47;;;;;;;3.88;0.00;;;9.50;99.90;;;;;;4995924;28;20019;-75
2023/10/30 01:35:13;;;;;;;4.88;0.55;;;9.50;99.90;;;;;;4995640;28;20022;-75
2023/10/30 01:37:39;;;;;;;3.08;0.52;;;9.50;99.90;;;;;;4978121;28;20034;-75
2023/10/30 01:40:05;;;;;;;6.75;0.65;;;9.50;99.90;;;;;;4995503;28;20105;-75
2023/10/30 01:42:31;;;;;;;7.80;0.70;;;9.50;99.90;;;;;;4978075;28;20033;-75
2023/10/30 01:44:58;;;;;;;2.97;0.57;;;9.50;99.90;;;;;;4995364;28;20022;-75
2023/10/30 01:47:25;;;;;;;5.63;0.45;;;9.40;99.90;;;;;;4995230;28;20030;-74
2023/10/30 01:49:55;;;;;;;7.85;0.75;;;9.40;99.90;;;;;;4995381;28;20190;-74
2023/10/30 01:52:21;;;;;;;11.02;0.30;;;9.40;99.90;;;;;;4977757;28;20053;-74
2023/10/30 01:54:48;;;;;;;2.30;0.10;;;9.50;99.90;;;;;;4977491;28;20034;-75
2023/10/30 01:57:19;;;;;;;4.60;0.00;;;9.50;99.90;;;;;;4995290;28;20073;-74
2023/10/30 01:59:46;;;;;;;6.65;0.57;;;9.50;99.90;;;;;;4977705;28;20037;-74
2023/10/30 02:02:12;;;;;;;3.35;0.00;;;9.50;99.90;;;;;;4995794;28;20490;-74
2023/10/30 02:04:37;;;;;;;3.67;0.00;;;9.60;99.90;;;;;;4995203;28;20026;-74
2023/10/30 02:07:03;;;;;;;4.65;0.00;;;9.50;99.90;;;;;;4977531;28;20022;-74
2023/10/30 02:09:32;;;;;;;1.42;0.08;;;9.50;99.90;;;;;;4994915;28;20441;-74
2023/10/30 02:11:58;;;;;;;;;;;9.50;99.90;;;;;;4977972;28;20097;-74
2023/10/30 02:14:24;;;;;;;1.55;0.00;;;9.60;99.90;;;;;;4994799;28;19905;-74
2023/10/30 02:16:50;;;;;;;9.48;0.28;;;9.60;99.90;;;;;;4994767;28;20438;-75
2023/10/30 02:19:22;;;;;;;8.32;0.20;;;9.60;99.90;;;;;;4994278;28;20050;-74
2023/10/30 02:21:48;;;;;;;2.05;0.00;;;9.70;99.90;;;;;;4977268;28;20026;-74
2023/10/30 02:24:14;;;;;;;2.70;0.10;;;9.60;99.90;;;;;;4995318;28;20023;-75
2023/10/30 02:26:40;;;;;;;4.10;0.20;;;9.60;99.90;;;;;;4994769;28;20551;-74
2023/10/30 02:29:05;;;;;;;12.23;1.83;;;9.50;99.90;;;;;;4977056;28;20030;-74
2023/10/30 02:31:32;;;;;;;4.97;0.00;;;9.50;99.90;;;;;;4977233;28;20109;-74
2023/10/30 02:34:00;;;;;;;6.18;0.38;;;9.40;99.90;;;;;;4994659;28;20022;-74
2023/10/30 02:36:25;;;;;;;5.93;0.65;;;9.40;99.90;;;;;;4994358;28;20037;-75
2023/10/30 02:38:52;;;;;;;4.32;0.10;;;9.30;99.90;;;;;;4977228;28;20464;-75
2023/10/30 02:41:18;;;;;;;4.50;0.35;;;9.30;99.90;;;;;;4994509;28;20019;-75
2023/10/30 02:43:44;;;;;;;8.52;0.30;;;9.30;99.90;;;;;;4994523;28;20026;-75
2023/10/30 02:46:10;;;;;;;11.75;0.75;;;9.40;99.90;;;;;;4994367;28;20018;-75
2023/10/30 02:48:36;;;;;;;6.78;0.20;;;9.40;99.90;;;;;;4994255;28;20027;-75
2023/10/30 02:51:01;;;;;;;9.20;0.52;;;9.40;99.90;;;;;;4994389;28;20023;-75
2023/10/30 02:53:27;;;;;;;5.63;0.30;;;9.40;99.90;;;;;;4994294;28;20022;-75
2023/10/30 02:55:52;;;;;;;5.93;0.52;;;9.40;99.90;;;;;;4994325;28;20049;-75
2023/10/30 02:58:18;;;;;;;4.40;0.10;;;9.40;99.90;;;;;;4994360;28;20110;-75
2023/10/30 03:00:43;;;;;;;5.25;0.00;;;9.40;99.90;;;;;;4993954;28;20046;-75
2023/10/30 03:03:09;;;;;;;7.88;0.20;;;9.40;99.90;;;;;;4994221;28;20026;-75
2023/10/30 03:05:35;;;;;;;10.05;0.03;;;9.40;99.90;;;;;;4994191;28;20482;-75
2023/10/30 03:08:01;;;;;;;5.07;0.45;;;9.50;99.90;;;;;;4994083;28;20033;-75
2023/10/30 03:10:27;;;;;;;6.75;0.35;;;9.50;99.90;;;;;;4994032;28;20023;-75
2023/10/30 03:12:53;;;;;;;9.57;0.47;;;9.50;99.90;;;;;;4976614;28;20041;-75
2023/10/30 03:15:19;;;;;;;9.15;0.57;;;9.50;99.90;;;;;;4994784;28;20030;-75
2023/10/30 03:17:44;;;;;;;11.82;0.73;;;9.50;99.90;;;;;;4993768;28;20085;-75
2023/10/30 03:20:10;;;;;;;10.27;0.45;;;9.60;99.90;;;;;;4994421;28;20026;-75
2023/10/30 03:22:36;;;;;;;5.00;0.00;;;9.60;99.90;;;;;;4976551;28;20429;-75
2023/10/30 03:25:01;;;;;;;2.47;0.32;;;9.50;99.90;;;;;;4976453;28;20478;-75
2023/10/30 03:27:27;;;;;;;2.67;0.10;;;9.50;99.90;;;;;;4994352;28;20023;-75
2023/10/30 03:29:53;;;;;;;8.68;0.35;;;9.50;99.90;;;;;;4993844;28;20038;-75
2023/10/30 03:32:18;;;;;;;5.30;0.00;;;9.50;99.90;;;;;;4979736;28;20084;-75
2023/10/30 03:34:44;;;;;;;5.40;0.30;;;9.60;99.90;;;;;;4980348;28;20085;-75
2023/10/30 03:37:10;;;;;;;5.35;0.55;;;9.50;99.90;;;;;;4997980;28;20038;-75
2023/10/30 03:39:35;;;;;;;4.10;0.55;;;9.50;99.90;;;;;;4997961;28;20486;-75
2023/10/30 03:42:01;;;;;;;5.70;0.20;;;9.60;99.90;;;;;;4998419;28;20026;-75
2023/10/30 03:44:27;;;;;;;7.68;0.63;;;9.60;99.90;;;;;;4998155;28;20029;-75
2023/10/30 03:46:53;;;;;;;4.60;0.32;;;9.70;99.90;;;;;;4997695;28;20110;-74
2023/10/30 03:49:19;;;;;;;4.82;0.10;;;9.60;99.90;;;;;;4998315;28;20104;-74
2023/10/30 03:51:44;;;;;;;5.07;0.10;;;9.70;99.90;;;;;;4997612;28;20026;-74
2023/10/30 03:54:10;;;;;;;4.68;0.47;;;9.70;99.90;;;;;;4997452;28;20034;-76
2023/10/30 03:56:35;;;;;;;4.72;0.30;;;9.70;99.90;;;;;;4979835;28;20034;-76
2023/10/30 03:59:01;;;;;;;3.47;0.00;;;9.70;99.90;;;;;;4979902;28;20025;-76
2023/10/30 04:01:27;;;;;;;2.78;0.38;;;9.70;99.90;;;;;;4997249;28;20085;-75
2023/10/30 04:03:53;;;;;;;6.93;0.45;;;9.70;99.90;;;;;;4997776;28;20018;-75
2023/10/30 04:06:19;;;;;;;5.57;0.10;;;9.70;99.90;;;;;;4979699;28;20022;-75
2023/10/30 04:08:44;;;;;;;4.75;0.22;;;9.70;99.90;;;;;;4979694;28;20025;-75
2023/10/30 04:11:15;;;;;;;6.95;1.00;;;9.70;99.90;;;;;;4997113;28;20490;-75
2023/10/30 04:13:40;;;;;;;9.15;0.47;;;9.70;99.90;;;;;;4997358;28;20019;-75
2023/10/30 04:16:09;;;;;;;6.50;0.32;;;9.70;99.90;;;;;;4979666;28;20022;-76
2023/10/30 04:18:34;;;;;;;6.85;0.40;;;9.60;99.90;;;;;;4979628;28;20022;-76
2023/10/30 04:21:00;;;;;;;3.72;0.00;;;9.60;99.90;;;;;;4996939;28;20033;-75
2023/10/30 04:23:25;;;;;;;8.02;0.35;;;9.60;99.90;;;;;;4997424;28;20041;-75
2023/10/30 04:25:51;;;;;;;10.35;1.13;;;9.60;99.90;;;;;;4996809;28;20025;-76
2023/10/30 04:28:16;;;;;;;9.60;0.20;;;9.60;99.90;;;;;;4996933;28;20076;-75
2023/10/30 04:30:42;;;;;;;1.42;0.08;;;9.50;99.90;;;;;;4996758;28;20025;-75
2023/10/30 04:33:07;;;;;;;6.30;0.10;;;9.50;99.90;;;;;;4979553;28;20026;-75
2023/10/30 04:35:33;;;;;;;9.43;0.80;;;9.50;99.90;;;;;;4997951;28;20033;-76
2023/10/30 04:37:59;;;;;;;6.32;0.52;;;9.50;99.90;;;;;;4979051;28;20030;-76
2023/10/30 04:40:24;;;;;;;6.28;0.60;;;9.50;99.90;;;;;;4979208;28;20018;-75
2023/10/30 04:42:50;;;;;;;7.88;0.60;;;9.60;99.90;;;;;;4996025;28;20027;-76
2023/10/30 04:45:15;;;;;;;4.07;0.77;;;9.60;99.90;;;;;;4979073;28;20032;-76
2023/10/30 04:47:42;;;;;;;7.18;0.00;;;9.60;99.90;;;;;;4979207;28;20491;-76
2023/10/30 04:50:08;;;;;;;5.65;0.30;;;9.50;99.90;;;;;;4996667;28;20105;-76
2023/10/30 04:52:33;;;;;;;8.40;0.50;;;9.50;99.90;;;;;;4996536;28;20121;-76
2023/10/30 04:54:59;;;;;;;3.63;0.35;;;9.40;99.90;;;;;;4996543;28;20061;-75
2023/10/30 04:57:24;;;;;;;5.40;0.10;;;9.50;99.90;;;;;;4996140;28;20037;-75
2023/10/30 04:59:50;;;;;;;11.18;0.60;;;9.40;99.90;;;;;;4978811;28;20077;-76
2023/10/30 05:02:15;;;;;;;5.57;0.28;;;9.40;99.90;;;;;;4996226;28;20105;-75
2023/10/30 05:04:41;;;;;;;4.97;0.40;;;9.40;99.90;;;;;;4996255;28;20026;-75
2023/10/30 05:07:07;;;;;;;5.78;0.65;;;9.40;99.90;;;;;;4996226;28;20031;-75
2023/10/30 05:09:32;;;;;;;13.55;0.25;;;9.40;99.90;;;;;;4996159;28;20037;-75
2023/10/30 05:11:59;;;;;;;5.85;0.15;;;9.40;99.90;;;;;;4995956;28;20042;-76
2023/10/30 05:14:26;;;;;;;9.77;1.48;;;9.40;99.90;;;;;;4978694;28;20485;-75
2023/10/30 05:16:52;;;;;;;5.60;0.15;;;9.50;99.90;;;;;;4978320;28;20023;-76
2023/10/30 05:19:17;;;;;;;6.72;0.57;;;9.50;99.90;;;;;;4996518;28;20034;-75
2023/10/30 05:21:43;;;;;;;2.28;0.43;;;9.50;99.90;;;;;;4995882;28;20018;-75
2023/10/30 05:24:09;;;;;;;2.95;0.00;;;9.50;99.90;;;;;;4996632;28;20046;-75
2023/10/30 05:26:34;;;;;;;14.55;1.77;;;9.60;99.90;;;;;;4978398;28;20073;-75
2023/10/30 05:29:00;;;;;;;2.75;0.10;;;9.50;99.90;;;;;;4979010;28;20039;-76
2023/10/30 05:31:25;;;;;;;6.60;0.57;;;9.60;99.90;;;;;;4995725;28;20482;-76
2023/10/30 05:33:51;;;;;;;7.82;0.88;;;9.60;99.90;;;;;;4995663;28;20113;-76
2023/10/30 05:36:16;;;;;;;11.20;0.20;;;9.60;99.90;;;;;;4977895;28;20022;-76
2023/10/30 05:38:42;;;;;;;5.20;0.20;;;9.60;99.90;;;;;;4995525;28;20022;-76
2023/10/30 05:41:08;;;;;;;11.23;0.35;;;9.60;99.90;;;;;;4978170;28;20053;-76
2023/10/30 05:43:33;;;;;;;9.77;0.77;;;9.60;99.90;;;;;;4995982;28;20028;-75
2023/10/30 05:45:59;;;;;;;9.70;0.95;;;9.50;99.90;;;;;;4995479;28;20078;-75
2023/10/30 05:48:27;;;;;;;7.47;0.10;;;9.50;99.90;;;;;;4995241;28;20018;-75
2023/10/30 05:50:53;;;;;;;7.38;0.50;;;9.50;99.90;;;;;;4979087;28;20069;-75
2023/10/30 05:53:19;;;;;;;6.00;0.47;;;9.50;99.90;;;;;;4995133;28;20026;-75
2023/10/30 05:55:45;;;;;;;4.68;0.30;;;9.50;99.90;;;;;;4995248;28;20018;-75
2023/10/30 05:58:12;;;;;;;4.40;0.32;;;9.50;99.90;;;;;;4977833;28;20393;-75
2023/10/30 06:00:38;;;;;;;7.70;0.70;;;9.50;99.90;;;;;;4977746;28;20037;-75
2023/10/30 06:03:13;;;;;;;9.30;0.88;;;9.50;99.90;;;;;;4995128;28;20022;-75
2023/10/30 06:05:39;;;;;;;3.95;0.50;;;10.30;99.90;;;;;;4995571;28;20038;-75
2023/10/30 06:08:04;;;;;;;8.88;1.00;;;9.50;99.90;;;;;;4995050;28;20018;-75
2023/10/30 06:10:30;;;;;;;7.82;0.55;;;9.50;99.90;;;;;;4995487;28;20384;-75
2023/10/30 06:12:56;;;;;;;5.63;0.20;;;9.40;99.90;;;;;;4994961;28;20405;-75
2023/10/30 06:15:21;;;;;;;10.25;1.10;;;9.50;99.90;;;;;;4995066;28;20077;-75
2023/10/30 06:17:47;;;;;;;7.47;0.10;;;9.50;99.90;;;;;;4977219;28;20374;-75
2023/10/30 06:20:12;;;;;;;6.78;0.45;;;9.50;99.90;;;;;;4994885;28;20026;-75
2023/10/30 06:22:38;;;;;;;6.18;0.20;;;9.50;99.90;;;;;;4995106;28;20042;-75
2023/10/30 06:25:04;;;;;;;10.43;0.57;;;9.40;99.90;;;;;;4994905;28;20057;-75
2023/10/30 06:27:31;;;;;;;7.55;0.20;;;9.40;99.90;;;;;;4994637;28;20030;-75
2023/10/30 06:29:58;;;;;;;3.85;0.52;;;9.40;99.90;;;;;;4995002;28;20023;-76
2023/10/30 06:32:23;;;;;;;13.13;1.15;;;9.30;99.90;;;;;;4994769;28;20033;-75
2023/10/30 06:34:49;;;;;;;7.05;0.25;;;9.40;99.90;;;;;;4994520;28;20030;-75
2023/10/30 06:37:15;;;;;;;4.22;0.10;;;9.30;99.90;;;;;;4994486;28;20041;-76
2023/10/30 06:39:41;;;;;;;8.85;0.32;;;9.30;99.90;;;;;;4994636;28;20026;-76
2023/10/30 06:42:07;;;;;;;4.95;0.10;;;9.30;99.90;;;;;;4977189;28;20030;-76
2023/10/30 06:44:33;;;;;;;7.55;0.63;;;10.30;99.90;;;;;;4977153;28;20433;-76
2023/10/30 06:46:59;;;;;;;10.85;1.05;;;9.30;99.90;;;;;;4994957;28;20065;-76
2023/10/30 06:49:24;;;;;;;6.65;0.80;;;9.40;99.90;;;;;;4994595;28;20486;-75
2023/10/30 06:51:50;;;;;;;19.15;1.55;;;9.40;99.90;;;;;;4977430;28;20394;-75
2023/10/30 06:54:16;;;;;;;4.05;0.57;;;9.40;99.90;;;;;;4995008;28;20026;-75
2023/10/30 06:56:41;;;;;;;5.03;0.13;;;9.50;99.90;;;;;;4977449;28;20532;-76
2023/10/30 06:59:12;;;;;;;4.88;0.15;;;9.50;99.90;;;;;;4994846;28;20034;-75
2023/10/30 07:01:43;;;;;;;6.50;0.10;;;9.50;99.90;;;;;;4977305;28;20027;-76
2023/10/30 07:04:12;;;;;;;6.88;0.60;;;9.50;99.90;;;;;;4977165;28;20608;-75
2023/10/30 07:06:39;;;;;;;9.27;0.75;;;9.60;99.90;;;;;;4976912;28;20505;-76
2023/10/30 07:09:07;;;;;;;7.90;0.43;;;9.60;99.90;;;;;;4994635;28;20037;-75
2023/10/30 07:11:37;;;;;;;5.85;0.10;;;9.60;99.90;;;;;;4976756;28;20038;-75
2023/10/30 07:14:03;;;;;;;7.93;0.75;;;9.70;99.90;;;;;;4977010;28;20041;-76
2023/10/30 07:16:33;;;;;;;3.67;0.08;;;9.80;99.90;;;;;;4994343;28;20481;-76
2023/10/30 07:18:59;;;;;;;10.13;1.25;;;9.80;99.90;;;;;;4976757;28;20034;-76
2023/10/30 07:21:28;;;;;;;6.90;0.30;;;9.80;99.90;;;;;;4994849;28;20493;-76
2023/10/30 07:23:54;;;;;;;9.15;0.85;;;9.90;99.90;;;;;;4976327;28;20036;-75
2023/10/30 07:26:21;;;;;;;5.10;0.30;;;10.00;99.90;;;;;;4976999;28;20456;-75
2023/10/30 07:28:51;;;;;;;7.65;0.98;;;10.00;99.90;;;;;;4993986;28;20034;-76
2023/10/30 07:31:20;;;;;;;2.45;0.10;;;10.10;99.90;;;;;;4976628;28;20141;-75
2023/10/30 07:33:46;;;;;;;;;;;10.10;99.90;;;;;;4977092;28;20370;-77
2023/10/30 07:36:11;;;;;;;8.40;0.50;;;10.30;99.90;;;;;;4994125;28;20004;-77
2023/10/30 07:38:37;;;;;;;6.65;0.40;;;10.30;99.90;;;;;;4976736;28;20500;-76
2023/10/30 07:41:03;;;;;;;7.18;0.10;;;10.30;99.90;;;;;;4976519;28;20018;-76
2023/10/30 07:43:29;;;;;;;8.48;0.43;;;10.40;99.90;;;;;;4993584;28;20030;-76
2023/10/30 07:45:55;;;;;;;10.50;0.40;;;10.50;99.90;;;;;;4976485;28;20126;-76
2023/10/30 07:48:20;;;;;;;5.07;0.52;;;10.60;99.90;;;;;;4976331;28;20069;-76
2023/10/30 07:50:47;;;;;;;7.70;0.38;;;10.70;99.90;;;;;;4994661;28;20035;-78
2023/10/30 07:53:14;;;;;;;10.98;0.88;;;10.70;99.90;;;;;;4994340;28;20097;-77
2023/10/30 07:55:40;;;;;;;7.25;0.30;;;10.90;99.90;;;;;;4994496;28;20027;-78
2023/10/30 07:58:06;;;;;;;7.43;0.15;;;10.90;99.90;;;;;;4976582;28;20029;-78
2023/10/30 08:00:32;;;;;;;4.32;0.17;;;10.90;99.90;;;;;;4993985;28;20027;-77
2023/10/30 08:02:58;;;;;;;5.82;0.50;;;11.20;99.90;;;;;;4977270;28;20030;-78
2023/10/30 08:05:24;;;;;;;3.35;0.65;;;11.20;99.90;;;;;;4994557;28;20026;-78
2023/10/30 08:07:49;;;;;;;11.80;0.63;;;11.30;99.90;;;;;;4995498;28;20022;-79
2023/10/30 08:10:15;;;;;;;6.25;0.40;;;11.40;99.90;;;;;;4977141;28;20114;-78
2023/10/30 08:12:41;;;;;;;7.47;0.45;;;11.50;99.90;;;;;;4994058;28;20378;-78
2023/10/30 08:15:07;;;;;;;5.70;0.10;;;11.60;99.90;;;;;;4976320;28;20482;-78
2023/10/30 08:17:33;;;;;;;10.57;0.30;;;;;;;;;;4996511;28;20440;-78
2023/10/30 08:19:59;;;;;;;8.60;0.38;;;11.60;99.90;;;;;;4997702;28;20390;-78
2023/10/30 08:22:25;;;;;;;7.78;0.20;;;11.70;99.90;;;;;;4998701;28;20026;-78
2023/10/30 08:24:51;;;;;;;6.00;0.22;;;11.60;99.90;;;;;;4980213;28;20030;-77
2023/10/30 08:27:17;;;;;;;9.32;0.60;;;11.80;99.90;;;;;;4979771;28;20034;-77
2023/10/30 08:29:43;;;;;;;10.35;1.75;;;11.80;99.90;;;;;;4997465;28;20031;-78
2023/10/30 08:32:09;;;;;;;7.00;0.88;;;11.70;99.90;;;;;;4997812;28;20390;-77
2023/10/30 08:34:34;;;;;;;9.85;1.00;;;12.10;99.90;;;;;;4979827;28;20022;-78
2023/10/30 08:37:00;;;;;;;4.00;0.32;;;11.70;99.90;;;;;;4979510;28;20072;-77
2023/10/30 08:39:26;;;;;;;5.90;0.28;;;11.70;99.90;;;;;;4980871;28;20022;-79
2023/10/30 08:41:51;;;;;;;8.15;0.22;;;11.60;99.90;;;;;;4997564;28;20433;-78
2023/10/30 08:44:17;;;;;;;5.38;0.17;;;11.60;99.90;;;;;;4998379;28;20019;-78
2023/10/30 08:46:42;;;;;;;9.38;0.73;;;11.60;99.90;;;;;;4981253;28;20026;-79
2023/10/30 08:49:08;;;;;;;4.95;0.20;;;11.60;99.90;;;;;;4998892;28;20383;-78
2023/10/30 08:51:40;;;;;;;5.43;0.60;;;11.60;99.90;;;;;;4980698;28;20064;-78
2023/10/30 08:54:12;;;;;;;5.13;0.28;;;11.60;99.90;;;;;;4980944;28;20018;-80
2023/10/30 08:56:39;;;;;;;6.00;0.38;;;11.70;99.90;;;;;;4980419;28;20069;-78
2023/10/30 08:59:05;;;;;;;14.45;1.02;;;11.70;99.90;;;;;;4998466;28;20081;-81
2023/10/30 09:01:31;;;;;;;10.57;0.57;;;11.70;99.90;;;;;;4980511;28;20026;-79
2023/10/30 09:03:57;;;;;;;7.10;1.08;;;11.70;99.90;;;;;;4997980;28;20027;-81
2023/10/30 09:06:23;;;;;;;9.75;0.90;;;11.70;99.90;;;;;;4998311;28;20029;-79
2023/10/30 09:08:50;;;;;;;5.40;0.57;;;11.70;99.90;;;;;;4981551;28;20125;-79
2023/10/30 09:11:16;;;;;;;8.32;0.00;;;11.70;99.90;;;;;;4997687;28;20069;-78
2023/10/30 09:13:42;;;;;;;5.30;1.05;;;;;;;;;;4997993;28;20462;-78
2023/10/30 09:16:08;;;;;;;10.10;0.13;;;11.80;99.90;;;;;;4980199;28;20457;-79
2023/10/30 09:18:34;;;;;;;9.13;0.80;;;11.70;99.90;;;;;;4996865;28;20072;-79
2023/10/30 09:21:00;;;;;;;22.33;0.70;;;11.70;99.90;;;;;;4981019;28;20041;-79
2023/10/30 09:23:26;;;;;;;5.80;0.65;;;11.70;99.90;;;;;;4980826;28;20042;-80
2023/10/30 09:25:51;;;;;;;8.70;0.25;;;13.10;99.90;;;;;;4998593;28;20015;-82
2023/10/30 09:28:18;;;;;;;12.30;1.20;;;11.80;99.90;;;;;;4981711;28;20029;-78
2023/10/30 09:30:44;;;;;;;5.32;0.25;;;12.00;99.90;;;;;;4997868;28;20029;-79
2023/10/30 09:33:09;;;;;;;10.25;1.00;;;12.40;99.90;;;;;;4981235;28;20094;-79
2023/10/30 09:35:37;;;;;;;8.30;0.30;;;12.80;99.90;;;;;;4998313;28;20054;-79
2023/10/30 09:38:03;;;;;;;6.03;0.75;;;12.00;99.90;;;;;;4998745;28;20077;-80
2023/10/30 09:40:28;;;;;;;6.72;0.40;;;12.00;99.90;;;;;;4979367;28;20014;-79
2023/10/30 09:42:55;;;;;;;8.52;0.50;;;12.10;99.90;;;;;;4997547;28;20023;-79
2023/10/30 09:45:22;;;;;;;6.35;0.20;;;14.80;99.90;;;;;;4980215;28;20023;-79
2023/10/30 09:47:51;;;;;;;9.82;0.20;;;12.10;99.90;;;;;;4997996;28;20026;-79
2023/10/30 09:50:18;;;;;;;4.38;0.10;;;13.20;99.90;;;;;;4997664;28;20023;-79
2023/10/30 09:52:49;;;;;;;7.60;0.43;;;12.20;99.90;;;;;;4979260;28;20168;-79
2023/10/30 09:55:19;;;;;;;1.98;0.13;;;12.10;99.90;;;;;;4980419;28;20027;-78
2023/10/30 09:57:48;;;;;;;2.90;0.00;;;12.20;99.90;;;;;;4997744;28;20080;-78
2023/10/30 10:00:15;;;;;;;5.05;0.10;;;12.20;99.90;;;;;;4997160;28;20076;-78
2023/10/30 10:02:41;;;;;;;6.18;0.20;;;12.20;99.90;;;;;;4979533;28;20168;-78
2023/10/30 10:05:09;;;;;;;6.75;0.40;;;12.30;99.90;;;;;;4979622;28;20501;-78
2023/10/30 10:07:35;;;;;;;5.03;0.10;;;12.40;99.90;;;;;;4996968;28;20022;-78
2023/10/30 10:10:03;;;;;;;8.95;0.45;;;12.40;99.90;;;;;;4996678;28;20496;-78
2023/10/30 10:12:30;;;;;;;7.03;0.47;;;12.40;99.90;;;;;;4979477;28;20508;-78
2023/10/30 10:14:56;;;;;;;3.67;0.38;;;12.50;99.90;;;;;;4979532;28;20026;-79
2023/10/30 10:17:21;;;;;;;10.73;0.15;;;12.50;99.90;;;;;;4979037;28;20030;-78
2023/10/30 10:19:47;;;;;;;4.63;0.10;;;12.60;99.90;;;;;;4997246;28;20109;-78
2023/10/30 10:22:31;;;;;;;5.80;0.30;;;12.80;99.90;;;;;;4979302;28;20029;-78
2023/10/30 10:24:59;;;;;;;11.05;1.35;;;13.10;99.90;;;;;;4995203;28;20030;-78
2023/10/30 10:27:28;;;;;;;2.83;0.17;;;13.60;99.90;;;;;;4995260;28;20393;-78
2023/10/30 10:29:55;;;;;;;11.50;1.10;;;15.00;99.90;;;;;;4995264;28;20049;-78
2023/10/30 10:32:25;;;;;;;6.53;0.30;;;13.80;99.90;;;;;;4977528;28;20478;-78
2023/10/30 10:35:07;;;;;;;8.00;0.85;;;14.10;99.90;;;;;;4977544;28;20050;-78
2023/10/30 10:37:33;;;;;;;5.55;0.10;;;14.40;99.90;;;;;;4995112;28;20026;-78
2023/10/30 10:40:00;;;;;;;5.78;0.47;;;14.40;99.90;;;;;;4977278;28;20076;-78
2023/10/30 10:42:27;;;;;;;5.40;0.30;;;14.40;99.90;;;;;;4995298;28;20033;-78
2023/10/30 10:44:55;;;;;;;8.18;0.20;;;14.40;99.90;;;;;;4994926;28;20025;-78
2023/10/30 10:47:22;;;;;;;7.85;0.17;;;15.60;99.90;;;;;;4995184;28;20033;-78
2023/10/30 10:49:48;;;;;;;7.88;0.08;;;14.10;99.90;;;;;;4978023;28;20042;-78
2023/10/30 10:52:16;;;;;;;3.28;0.43;;;14.00;99.90;;;;;;4995477;28;20029;-78
2023/10/30 10:55:05;;;;;;;9.30;0.55;;;14.00;99.90;;;;;;4977986;28;20057;-78
2023/10/30 10:57:57;;;;;;;6.88;0.43;;;13.90;99.90;;;;;;4977452;28;20023;-78
2023/10/30 11:00:24;;;;;;;5.03;0.65;;;13.90;99.90;;;;;;4994915;28;20030;-78
2023/10/30 11:02:51;;;;;;;10.38;0.38;;;13.90;99.90;;;;;;4978229;28;20370;-79
2023/10/30 11:05:17;;;;;;;5.13;0.10;;;13.90;99.90;;;;;;4995651;28;20482;-78
2023/10/30 11:07:46;;;;;;;2.63;0.00;;;15.90;99.90;;;;;;4995157;28;20490;-78
2023/10/30 11:10:23;;;;;;;4.05;0.57;;;14.00;99.90;;;;;;4995384;28;20093;-78
2023/10/30 11:13:25;;;;;;;8.98;0.38;;;14.00;99.90;;;;;;4977675;28;20039;-78
2023/10/30 11:15:58;;;;;;;3.67;0.10;;;14.10;99.90;;;;;;4995416;28;20022;-78
2023/10/30 11:18:27;;;;;;;4.93;0.40;;;14.10;99.90;;;;;;4995007;28;20026;-78
2023/10/30 11:21:12;;;;;;;6.97;0.40;;;14.00;99.90;;;;;;4995021;28;20038;-78
2023/10/30 11:23:44;;;;;;;6.82;0.52;;;14.00;99.90;;;;;;4977757;28;20266;-78
2023/10/30 11:26:29;;;;;;;2.85;0.68;;;14.00;99.90;;;;;;4978402;28;20107;-78
2023/10/30 11:28:54;;;;;;;3.72;0.40;;;14.00;99.90;;;;;;4978104;28;20448;-78
2023/10/30 11:31:20;;;;;;;3.70;0.45;;;14.00;99.90;;;;;;4995591;28;20026;-78
2023/10/30 11:33:48;;;;;;;4.30;0.43;;;13.90;99.90;;;;;;4977496;28;20022;-78
2023/10/30 11:36:22;;;;;;;3.35;0.17;;;13.90;99.90;;;;;;4977269;28;20030;-78
2023/10/30 11:38:57;;;;;;;8.65;0.77;;;13.90;99.90;;;;;;4995474;28;20027;-78
2023/10/30 11:41:28;;;;;;;6.38;0.30;;;14.00;99.90;;;;;;4994930;28;20499;-78
2023/10/30 11:44:13;;;;;;;2.65;0.00;;;13.90;99.90;;;;;;4994975;28;20405;-78
2023/10/30 11:46:47;;;;;;;6.53;0.00;;;14.00;99.90;;;;;;4995084;28;20033;-78
2023/10/30 11:49:17;;;;;;;6.18;0.63;;;14.00;99.90;;;;;;4995114;28;20018;-78
2023/10/30 11:51:45;;;;;;;8.23;0.65;;;14.00;99.90;;;;;;4996432;28;20018;-78
2023/10/30 11:54:11;;;;;;;9.27;0.77;;;14.10;99.90;;;;;;4998625;28;20026;-78
2023/10/30 11:56:46;;;;;;;5.90;0.00;;;14.20;99.90;;;;;;4998581;28;20478;-78
2023/10/30 11:59:12;;;;;;;7.85;0.55;;;;;;;;;;4981431;28;20507;-78
2023/10/30 12:01:38;;;;;;;3.25;0.47;;;14.20;99.90;;;;;;4981030;28;20053;-78
2023/10/30 12:04:04;;;;;;;2.90;0.10;;;14.20;99.90;;;;;;4998495;28;20102;-78
2023/10/30 12:06:29;;;;;;;5.45;0.25;;;14.30;99.90;;;;;;4998626;28;20022;-78
2023/10/30 12:08:55;;;;;;;7.25;0.55;;;14.30;99.90;;;;;;4980856;28;20076;-78
2023/10/30 12:11:20;;;;;;;2.72;0.20;;;14.40;99.90;;;;;;4998513;28;20027;-79
2023/10/30 12:13:47;;;;;;;4.22;0.00;;;14.40;99.90;;;;;;4981019;28;20069;-78
2023/10/30 12:16:12;;;;;;;2.97;0.10;;;14.30;99.90;;;;;;4981020;28;20397;-78
2023/10/30 12:18:38;;;;;;;6.38;1.05;;;14.30;99.90;;;;;;4980815;28;20026;-78
2023/10/30 12:21:04;;;;;;;10.90;0.52;;;14.60;99.90;;;;;;4998372;28;20022;-78
2023/10/30 12:23:30;;;;;;;5.95;0.65;;;14.30;99.90;;;;;;4998391;28;20023;-78
2023/10/30 12:26:05;;;;;;;4.15;0.10;;;14.30;99.90;;;;;;4980542;28;20181;-78
2023/10/30 12:28:38;;;;;;;8.57;0.10;;;14.20;99.90;;;;;;4980374;28;20544;-78
2023/10/30 12:31:16;;;;;;;2.80;0.40;;;14.20;99.90;;;;;;4980403;28;20026;-78
2023/10/30 12:33:42;;;;;;;5.97;0.57;;;14.20;99.90;;;;;;4997849;28;20117;-78
2023/10/30 12:36:08;;;;;;;4.43;0.63;;;14.10;99.90;;;;;;4980246;28;20494;-78
2023/10/30 12:38:33;;;;;;;6.82;0.73;;;14.10;99.90;;;;;;4997773;28;20025;-78
2023/10/30 12:41:06;;;;;;;8.80;0.30;;;14.10;99.90;;;;;;4980531;28;20039;-78
2023/10/30 12:43:37;;;;;;;4.00;0.10;;;14.10;99.90;;;;;;4998386;28;20026;-78
2023/10/30 12:46:03;;;;;;;4.20;0.20;;;14.10;99.90;;;;;;4980555;28;20028;-78
2023/10/30 12:48:29;;;;;;;8.40;0.20;;;14.10;99.90;;;;;;4997167;28;20102;-75
2023/10/30 12:50:54;;;;;;;5.60;0.32;;;14.00;99.90;;;;;;4996777;28;20026;-76
2023/10/30 12:53:20;;;;;;;2.90;0.05;;;13.90;99.90;;;;;;4996443;28;20441;-76
2023/10/30 12:55:45;;;;;;;8.73;0.88;;;13.90;99.90;;;;;;4978611;28;20033;-76
2023/10/30 12:58:11;;;;;;;5.07;0.88;;;13.90;99.90;;;;;;4978389;28;20026;-76